sensor_id;sensor_type;location;lat;lon;timestamp;P1;durP1;ratioP1;P2;durP2;ratioP2
36555;SDS011;40859;50.560;7.268;2022-12-18T15:46:22;45.50;;;20.98;;
36555;SDS011;40859;50.560;7.268;2022-12-18T15:48:50;36.42;;;19.58;;
36555;SDS011;40859;50.560;7.268;2022-12-18T15:51:26;38.45;;;18.65;;
36555;SDS011;40859;50.560;7.268;2022-12-18T15:53:54;46.20;;;19.00;;
36555;SDS011;40859;50.560;7.268;2022-12-18T15:56:21;32.08;;;18.10;;
36555;SDS011;40859;50.560;7.268;2022-12-18T15:59:13;37.55;;;17.65;;
36555;SDS011;40859;50.560;7.268;2022-12-18T16:01:40;39.55;;;17.42;;
36555;SDS011;40859;50.560;7.268;2022-12-18T16:04:08;34.25;;;15.70;;
36555;SDS011;40859;50.560;7.268;2022-12-18T16:06:34;31.08;;;15.38;;
36555;SDS011;40859;50.560;7.268;2022-12-18T16:09:01;42.10;;;13.77;;
36555;SDS011;40859;50.560;7.268;2022-12-18T16:11:27;33.90;;;14.05;;
36555;SDS011;40859;50.560;7.268;2022-12-18T16:14:25;35.08;;;13.48;;
36555;SDS011;40859;50.560;7.268;2022-12-18T16:16:53;33.03;;;13.27;;
36555;SDS011;40859;50.560;7.268;2022-12-18T16:19:19;26.15;;;12.57;;
36555;SDS011;40859;50.560;7.268;2022-12-18T16:21:46;29.42;;;11.95;;
36555;SDS011;40859;50.560;7.268;2022-12-18T16:24:20;22.58;;;11.73;;
36555;SDS011;40859;50.560;7.268;2022-12-18T16:26:50;35.28;;;12.02;;
36555;SDS011;40859;50.560;7.268;2022-12-18T16:29:16;28.85;;;11.75;;
36555;SDS011;40859;50.560;7.268;2022-12-18T16:31:42;22.77;;;11.68;;
36555;SDS011;40859;50.560;7.268;2022-12-18T16:34:27;19.95;;;10.63;;
36555;SDS011;40859;50.560;7.268;2022-12-18T16:36:58;26.17;;;10.32;;
36555;SDS011;40859;50.560;7.268;2022-12-18T16:39:25;18.87;;;10.45;;
36555;SDS011;40859;50.560;7.268;2022-12-18T16:41:52;21.55;;;10.13;;
36555;SDS011;40859;50.560;7.268;2022-12-18T16:44:18;19.23;;;9.93;;
36555;SDS011;40859;50.560;7.268;2022-12-18T16:46:46;22.45;;;11.10;;
36555;SDS011;40859;50.560;7.268;2022-12-18T16:49:15;21.85;;;10.27;;
36555;SDS011;40859;50.560;7.268;2022-12-18T16:51:42;26.37;;;11.10;;
36555;SDS011;40859;50.560;7.268;2022-12-18T16:54:08;23.83;;;9.25;;
36555;SDS011;40859;50.560;7.268;2022-12-18T16:56:36;17.83;;;9.07;;
36555;SDS011;40859;50.560;7.268;2022-12-18T16:59:03;17.20;;;9.85;;
36555;SDS011;40859;50.560;7.268;2022-12-18T17:01:30;18.15;;;9.32;;
36555;SDS011;40859;50.560;7.268;2022-12-18T17:03:58;19.08;;;9.18;;
36555;SDS011;40859;50.560;7.268;2022-12-18T17:06:25;17.35;;;8.75;;
36555;SDS011;40859;50.560;7.268;2022-12-18T17:08:58;18.02;;;9.05;;
36555;SDS011;40859;50.560;7.268;2022-12-18T17:11:26;17.02;;;9.50;;
36555;SDS011;40859;50.560;7.268;2022-12-18T17:13:52;16.65;;;7.60;;
36555;SDS011;40859;50.560;7.268;2022-12-18T17:16:19;18.30;;;9.68;;
36555;SDS011;40859;50.560;7.268;2022-12-18T17:18:45;16.77;;;8.93;;
36555;SDS011;40859;50.560;7.268;2022-12-18T17:21:12;20.10;;;9.75;;
36555;SDS011;40859;50.560;7.268;2022-12-18T17:23:41;23.75;;;11.20;;
36555;SDS011;40859;50.560;7.268;2022-12-18T17:26:08;19.23;;;9.10;;
36555;SDS011;40859;50.560;7.268;2022-12-18T17:28:35;21.30;;;9.65;;
36555;SDS011;40859;50.560;7.268;2022-12-18T17:31:02;15.63;;;8.93;;
36555;SDS011;40859;50.560;7.268;2022-12-18T17:33:35;17.70;;;8.98;;
36555;SDS011;40859;50.560;7.268;2022-12-18T17:36:01;20.73;;;9.80;;
36555;SDS011;40859;50.560;7.268;2022-12-18T17:38:27;18.08;;;8.57;;
36555;SDS011;40859;50.560;7.268;2022-12-18T17:40:53;18.20;;;9.10;;
36555;SDS011;40859;50.560;7.268;2022-12-18T17:43:19;16.40;;;9.68;;
36555;SDS011;40859;50.560;7.268;2022-12-18T17:45:45;22.40;;;9.75;;
36555;SDS011;40859;50.560;7.268;2022-12-18T17:48:11;16.55;;;8.65;;
36555;SDS011;40859;50.560;7.268;2022-12-18T17:50:38;16.35;;;9.30;;
36555;SDS011;40859;50.560;7.268;2022-12-18T17:53:04;16.40;;;8.00;;
36555;SDS011;40859;50.560;7.268;2022-12-18T17:55:30;14.55;;;8.63;;
36555;SDS011;40859;50.560;7.268;2022-12-18T17:57:56;13.57;;;8.48;;
36555;SDS011;40859;50.560;7.268;2022-12-18T18:00:22;18.48;;;8.50;;
36555;SDS011;40859;50.560;7.268;2022-12-18T18:02:49;18.15;;;7.87;;
36555;SDS011;40859;50.560;7.268;2022-12-18T18:05:15;14.27;;;8.95;;
36555;SDS011;40859;50.560;7.268;2022-12-18T18:07:41;13.45;;;8.13;;
36555;SDS011;40859;50.560;7.268;2022-12-18T18:10:07;18.27;;;8.23;;
36555;SDS011;40859;50.560;7.268;2022-12-18T18:12:35;17.55;;;8.38;;
36555;SDS011;40859;50.560;7.268;2022-12-18T18:15:20;15.77;;;8.52;;
36555;SDS011;40859;50.560;7.268;2022-12-18T18:17:46;14.10;;;8.02;;
36555;SDS011;40859;50.560;7.268;2022-12-18T18:20:15;14.57;;;8.65;;
36555;SDS011;40859;50.560;7.268;2022-12-18T18:22:41;17.90;;;7.37;;
36555;SDS011;40859;50.560;7.268;2022-12-18T18:25:08;13.10;;;7.40;;
36555;SDS011;40859;50.560;7.268;2022-12-18T18:27:34;15.68;;;8.52;;
36555;SDS011;40859;50.560;7.268;2022-12-18T18:30:00;11.65;;;7.35;;
36555;SDS011;40859;50.560;7.268;2022-12-18T18:32:26;14.60;;;7.10;;
36555;SDS011;40859;50.560;7.268;2022-12-18T18:34:53;14.55;;;7.55;;
36555;SDS011;40859;50.560;7.268;2022-12-18T18:37:19;10.60;;;6.53;;
36555;SDS011;40859;50.560;7.268;2022-12-18T18:39:45;12.05;;;7.32;;
36555;SDS011;40859;50.560;7.268;2022-12-18T18:42:11;13.82;;;8.10;;
36555;SDS011;40859;50.560;7.268;2022-12-18T18:44:37;11.70;;;7.07;;
36555;SDS011;40859;50.560;7.268;2022-12-18T18:47:03;13.48;;;7.78;;
36555;SDS011;40859;50.560;7.268;2022-12-18T18:49:29;13.52;;;7.43;;
36555;SDS011;40859;50.560;7.268;2022-12-18T18:51:56;11.48;;;7.18;;
36555;SDS011;40859;50.560;7.268;2022-12-18T18:54:23;12.02;;;7.95;;
36555;SDS011;40859;50.560;7.268;2022-12-18T18:56:53;13.38;;;7.40;;
36555;SDS011;40859;50.560;7.268;2022-12-18T18:59:19;11.63;;;7.05;;
36555;SDS011;40859;50.560;7.268;2022-12-18T19:01:45;12.52;;;6.90;;
36555;SDS011;40859;50.560;7.268;2022-12-18T19:04:13;10.68;;;7.47;;
36555;SDS011;40859;50.560;7.268;2022-12-18T19:06:39;11.48;;;6.85;;
36555;SDS011;40859;50.560;7.268;2022-12-18T19:09:06;15.63;;;7.35;;
36555;SDS011;40859;50.560;7.268;2022-12-18T19:11:33;11.75;;;6.75;;
36555;SDS011;40859;50.560;7.268;2022-12-18T19:14:17;15.10;;;8.15;;
36555;SDS011;40859;50.560;7.268;2022-12-18T19:16:44;11.05;;;6.62;;
36555;SDS011;40859;50.560;7.268;2022-12-18T19:19:10;10.10;;;6.55;;
36555;SDS011;40859;50.560;7.268;2022-12-18T19:21:37;11.18;;;6.62;;
36555;SDS011;40859;50.560;7.268;2022-12-18T19:24:03;10.20;;;6.35;;
36555;SDS011;40859;50.560;7.268;2022-12-18T19:26:29;17.08;;;7.40;;
36555;SDS011;40859;50.560;7.268;2022-12-18T19:29:00;11.90;;;7.43;;
36555;SDS011;40859;50.560;7.268;2022-12-18T19:31:26;12.57;;;7.15;;
36555;SDS011;40859;50.560;7.268;2022-12-18T19:33:52;12.57;;;6.95;;
36555;SDS011;40859;50.560;7.268;2022-12-18T19:36:19;12.37;;;7.57;;
36555;SDS011;40859;50.560;7.268;2022-12-18T19:38:47;14.75;;;7.53;;
36555;SDS011;40859;50.560;7.268;2022-12-18T19:41:13;15.10;;;6.68;;
36555;SDS011;40859;50.560;7.268;2022-12-18T19:43:40;12.80;;;7.78;;
36555;SDS011;40859;50.560;7.268;2022-12-18T19:46:08;12.43;;;7.45;;
36555;SDS011;40859;50.560;7.268;2022-12-18T19:48:35;9.65;;;6.80;;
36555;SDS011;40859;50.560;7.268;2022-12-18T19:51:08;13.55;;;7.15;;
36555;SDS011;40859;50.560;7.268;2022-12-18T19:53:34;11.75;;;6.97;;
36555;SDS011;40859;50.560;7.268;2022-12-18T19:56:20;11.85;;;6.97;;
36555;SDS011;40859;50.560;7.268;2022-12-18T19:58:47;13.00;;;8.02;;
36555;SDS011;40859;50.560;7.268;2022-12-18T20:01:14;17.17;;;6.82;;
36555;SDS011;40859;50.560;7.268;2022-12-18T20:03:40;13.05;;;7.05;;
36555;SDS011;40859;50.560;7.268;2022-12-18T20:06:08;10.90;;;7.05;;
36555;SDS011;40859;50.560;7.268;2022-12-18T20:08:34;12.43;;;7.75;;
36555;SDS011;40859;50.560;7.268;2022-12-18T20:11:01;10.32;;;7.03;;
36555;SDS011;40859;50.560;7.268;2022-12-18T20:13:27;14.43;;;7.47;;
36555;SDS011;40859;50.560;7.268;2022-12-18T20:15:53;13.75;;;7.40;;
36555;SDS011;40859;50.560;7.268;2022-12-18T20:18:19;11.45;;;7.45;;
36555;SDS011;40859;50.560;7.268;2022-12-18T20:20:46;12.88;;;7.15;;
36555;SDS011;40859;50.560;7.268;2022-12-18T20:23:12;12.60;;;6.78;;
36555;SDS011;40859;50.560;7.268;2022-12-18T20:25:38;12.15;;;6.80;;
36555;SDS011;40859;50.560;7.268;2022-12-18T20:28:04;12.50;;;7.10;;
36555;SDS011;40859;50.560;7.268;2022-12-18T20:30:30;11.88;;;7.37;;
36555;SDS011;40859;50.560;7.268;2022-12-18T20:32:56;13.57;;;6.93;;
36555;SDS011;40859;50.560;7.268;2022-12-18T20:35:23;13.02;;;6.90;;
36555;SDS011;40859;50.560;7.268;2022-12-18T20:37:52;10.85;;;6.87;;
36555;SDS011;40859;50.560;7.268;2022-12-18T20:40:20;12.60;;;7.45;;
36555;SDS011;40859;50.560;7.268;2022-12-18T20:42:46;11.63;;;6.93;;
36555;SDS011;40859;50.560;7.268;2022-12-18T20:45:12;12.73;;;7.30;;
36555;SDS011;40859;50.560;7.268;2022-12-18T20:47:39;13.95;;;7.32;;
36555;SDS011;40859;50.560;7.268;2022-12-18T20:50:06;14.40;;;7.68;;
36555;SDS011;40859;50.560;7.268;2022-12-18T20:52:32;14.70;;;7.03;;
36555;SDS011;40859;50.560;7.268;2022-12-18T20:55:01;10.45;;;6.93;;
36555;SDS011;40859;50.560;7.268;2022-12-18T20:57:28;10.40;;;7.12;;
36555;SDS011;40859;50.560;7.268;2022-12-18T20:59:54;15.30;;;7.22;;
36555;SDS011;40859;50.560;7.268;2022-12-18T21:02:20;14.65;;;7.00;;
36555;SDS011;40859;50.560;7.268;2022-12-18T21:04:47;11.25;;;6.72;;
36555;SDS011;40859;50.560;7.268;2022-12-18T21:07:14;10.30;;;6.97;;
36555;SDS011;40859;50.560;7.268;2022-12-18T21:09:40;12.05;;;6.93;;
36555;SDS011;40859;50.560;7.268;2022-12-18T21:12:12;10.55;;;6.75;;
36555;SDS011;40859;50.560;7.268;2022-12-18T21:15:04;11.18;;;6.68;;
36555;SDS011;40859;50.560;7.268;2022-12-18T21:17:31;11.75;;;6.93;;
36555;SDS011;40859;50.560;7.268;2022-12-18T21:19:58;11.15;;;6.25;;
36555;SDS011;40859;50.560;7.268;2022-12-18T21:22:24;9.93;;;6.80;;
36555;SDS011;40859;50.560;7.268;2022-12-18T21:24:51;12.73;;;6.78;;
36555;SDS011;40859;50.560;7.268;2022-12-18T21:27:17;17.95;;;7.55;;
36555;SDS011;40859;50.560;7.268;2022-12-18T21:29:43;11.27;;;7.18;;
36555;SDS011;40859;50.560;7.268;2022-12-18T21:32:11;12.85;;;7.28;;
36555;SDS011;40859;50.560;7.268;2022-12-18T21:34:38;13.20;;;6.70;;
36555;SDS011;40859;50.560;7.268;2022-12-18T21:37:04;11.77;;;7.72;;
36555;SDS011;40859;50.560;7.268;2022-12-18T21:39:31;9.43;;;6.45;;
36555;SDS011;40859;50.560;7.268;2022-12-18T21:41:57;12.07;;;7.57;;
36555;SDS011;40859;50.560;7.268;2022-12-18T21:44:42;11.35;;;6.62;;
36555;SDS011;40859;50.560;7.268;2022-12-18T21:47:11;14.52;;;7.00;;
36555;SDS011;40859;50.560;7.268;2022-12-18T21:49:38;11.38;;;6.97;;
36555;SDS011;40859;50.560;7.268;2022-12-18T21:52:04;13.93;;;8.02;;
36555;SDS011;40859;50.560;7.268;2022-12-18T21:54:30;12.93;;;7.32;;
36555;SDS011;40859;50.560;7.268;2022-12-18T21:57:00;11.55;;;7.20;;
36555;SDS011;40859;50.560;7.268;2022-12-18T21:59:31;16.17;;;7.40;;
36555;SDS011;40859;50.560;7.268;2022-12-18T22:01:58;14.80;;;7.18;;
36555;SDS011;40859;50.560;7.268;2022-12-18T22:04:25;11.40;;;6.82;;
36555;SDS011;40859;50.560;7.268;2022-12-18T22:06:51;9.52;;;6.00;;
36555;SDS011;40859;50.560;7.268;2022-12-18T22:09:18;15.25;;;6.57;;
36555;SDS011;40859;50.560;7.268;2022-12-18T22:11:45;10.30;;;6.28;;
36555;SDS011;40859;50.560;7.268;2022-12-18T22:14:12;10.88;;;6.62;;
36555;SDS011;40859;50.560;7.268;2022-12-18T22:16:39;17.17;;;6.68;;
36555;SDS011;40859;50.560;7.268;2022-12-18T22:19:05;12.57;;;7.72;;
36555;SDS011;40859;50.560;7.268;2022-12-18T22:21:32;9.30;;;6.20;;
36555;SDS011;40859;50.560;7.268;2022-12-18T22:24:00;10.20;;;6.80;;
36555;SDS011;40859;50.560;7.268;2022-12-18T22:26:31;13.95;;;7.35;;
36555;SDS011;40859;50.560;7.268;2022-12-18T22:28:58;10.82;;;7.00;;
36555;SDS011;40859;50.560;7.268;2022-12-18T22:31:42;10.73;;;7.12;;
36555;SDS011;40859;50.560;7.268;2022-12-18T22:34:09;11.15;;;7.07;;
36555;SDS011;40859;50.560;7.268;2022-12-18T22:36:36;11.63;;;7.35;;
36555;SDS011;40859;50.560;7.268;2022-12-18T22:39:03;13.60;;;6.32;;
36555;SDS011;40859;50.560;7.268;2022-12-18T22:41:31;10.60;;;7.22;;
36555;SDS011;40859;50.560;7.268;2022-12-18T22:43:57;14.45;;;6.75;;
36555;SDS011;40859;50.560;7.268;2022-12-18T22:46:23;15.38;;;7.15;;
36555;SDS011;40859;50.560;7.268;2022-12-18T22:48:51;33.97;;;6.35;;
36555;SDS011;40859;50.560;7.268;2022-12-18T22:51:18;22.35;;;7.95;;
36555;SDS011;40859;50.560;7.268;2022-12-18T22:53:44;10.02;;;6.22;;
36555;SDS011;40859;50.560;7.268;2022-12-18T22:56:11;26.35;;;6.72;;
36555;SDS011;40859;50.560;7.268;2022-12-18T22:58:37;13.43;;;6.32;;
36555;SDS011;40859;50.560;7.268;2022-12-18T23:01:04;13.85;;;6.87;;
36555;SDS011;40859;50.560;7.268;2022-12-18T23:03:31;13.85;;;6.97;;
36555;SDS011;40859;50.560;7.268;2022-12-18T23:06:01;18.58;;;8.43;;
36555;SDS011;40859;50.560;7.268;2022-12-18T23:08:27;15.00;;;6.95;;
36555;SDS011;40859;50.560;7.268;2022-12-18T23:10:54;13.62;;;6.57;;
36555;SDS011;40859;50.560;7.268;2022-12-18T23:13:20;20.90;;;7.90;;
